createdAt,value
2022-10-09T00:04:23.609Z,11.17
2022-10-09T00:09:29.647Z,11.18
2022-10-09T00:14:35.471Z,11.15
2022-10-09T00:19:41.238Z,11.09
2022-10-09T00:24:46.955Z,11.10
2022-10-09T00:29:52.762Z,11.17
2022-10-09T00:34:58.695Z,11.29
2022-10-09T00:40:05.425Z,11.38
2022-10-09T00:45:20.093Z,11.43
2022-10-09T00:50:28.171Z,11.48
2022-10-09T00:55:38.022Z,11.43
2022-10-09T01:00:43.824Z,11.30
2022-10-09T01:06:00.551Z,11.16
2022-10-09T01:11:18.198Z,11.09
2022-10-09T01:16:29.207Z,11.11
2022-10-09T01:21:36.279Z,11.16
2022-10-09T01:27:09.653Z,11.18
2022-10-09T01:32:21.129Z,11.15
2022-10-09T01:37:28.543Z,11.13
2022-10-09T01:42:34.508Z,11.08
2022-10-09T01:47:40.405Z,10.98
2022-10-09T01:52:50.440Z,10.88
2022-10-09T01:58:05.511Z,10.85
2022-10-09T02:03:15.617Z,10.84
2022-10-09T02:08:24.280Z,10.83
2022-10-09T02:13:31.269Z,10.83
2022-10-09T02:18:40.863Z,10.80
2022-10-09T02:23:49.871Z,10.69
2022-10-09T02:28:57.362Z,10.51
2022-10-09T02:34:05.575Z,10.38
2022-10-09T02:39:11.805Z,10.25
2022-10-09T02:44:18.291Z,10.11
2022-10-09T02:49:24.621Z,10.00
2022-10-09T02:54:30.317Z,9.87
2022-10-09T02:59:36.073Z,9.80
2022-10-09T03:04:41.841Z,9.74
2022-10-09T03:09:47.566Z,9.65
2022-10-09T03:14:53.342Z,9.53
2022-10-09T03:19:59.730Z,9.45
2022-10-09T03:25:06.574Z,9.41
2022-10-09T03:30:13.943Z,9.32
2022-10-09T03:35:19.896Z,9.19
2022-10-09T03:40:25.941Z,9.16
2022-10-09T03:45:31.996Z,9.22
2022-10-09T03:50:39.308Z,9.29
2022-10-09T03:55:45.236Z,9.32
2022-10-09T04:00:53.152Z,9.38
2022-10-09T04:05:59.305Z,9.47
2022-10-09T04:11:05.144Z,9.54
2022-10-09T04:16:12.911Z,9.59
2022-10-09T04:21:18.984Z,9.60
2022-10-09T04:26:24.886Z,9.63
2022-10-09T04:31:30.896Z,9.62
2022-10-09T04:36:36.990Z,9.59
2022-10-09T04:41:42.631Z,9.61
2022-10-09T04:46:49.638Z,9.63
2022-10-09T04:51:55.601Z,9.61
2022-10-09T04:57:01.520Z,9.58
2022-10-09T05:02:08.014Z,9.56
2022-10-09T05:07:18.315Z,9.55
2022-10-09T05:12:27.303Z,9.55
2022-10-09T05:17:33.218Z,9.49
2022-10-09T05:22:39.042Z,9.52
2022-10-09T05:27:44.905Z,9.57
2022-10-09T05:32:50.960Z,9.57
2022-10-09T05:37:57.183Z,9.63
2022-10-09T05:43:03.095Z,9.68
2022-10-09T05:48:08.877Z,9.72
2022-10-09T05:53:14.638Z,9.76
2022-10-09T05:58:20.382Z,9.82
2022-10-09T06:03:26.187Z,9.85
2022-10-09T06:08:34.031Z,9.90
2022-10-09T06:13:39.817Z,9.90
2022-10-09T06:18:49.234Z,9.94
2022-10-09T06:23:57.891Z,10.01
2022-10-09T06:29:03.921Z,10.11
2022-10-09T06:34:11.365Z,10.14
2022-10-09T06:39:17.579Z,10.15
2022-10-09T06:44:23.830Z,10.23
2022-10-09T06:49:29.717Z,10.34
2022-10-09T06:54:35.743Z,10.42
2022-10-09T07:12:20.354Z,10.66
2022-10-09T07:17:26.346Z,10.72
2022-10-09T07:22:32.113Z,10.85
2022-10-09T07:27:37.942Z,10.97
2022-10-09T07:32:43.846Z,11.03
2022-10-09T07:37:52.046Z,11.15
2022-10-09T07:42:58.197Z,11.25
2022-10-09T07:48:04.051Z,11.37
2022-10-09T07:53:09.931Z,11.59
2022-10-09T07:58:16.268Z,11.91
2022-10-09T08:03:22.342Z,12.51
2022-10-09T08:08:30.405Z,12.74
2022-10-09T08:13:36.973Z,12.66
2022-10-09T08:18:42.903Z,12.52
2022-10-09T08:23:51.978Z,12.33
2022-10-09T08:28:59.649Z,12.24
2022-10-09T08:34:05.431Z,12.19
2022-10-09T08:39:11.422Z,12.10
2022-10-09T08:44:22.227Z,12.05
2022-10-09T08:49:33.163Z,12.37
2022-10-09T08:54:39.917Z,12.55
2022-10-09T08:59:46.090Z,12.58
2022-10-09T09:05:08.849Z,12.55
2022-10-09T09:10:22.168Z,12.58
2022-10-09T09:15:45.023Z,12.73
2022-10-09T09:20:54.435Z,13.28
2022-10-09T09:26:01.168Z,13.65
2022-10-09T09:31:14.588Z,13.63
2022-10-09T09:36:25.179Z,13.59
2022-10-09T09:41:31.282Z,13.74
2022-10-09T09:46:37.922Z,13.93
2022-10-09T09:51:44.250Z,13.96
2022-10-09T09:57:12.062Z,14.12
2022-10-09T10:02:21.144Z,14.23
2022-10-09T10:07:32.846Z,14.19
2022-10-09T10:12:43.820Z,14.10
2022-10-09T10:17:54.975Z,13.81
2022-10-09T10:23:01.753Z,13.58
2022-10-09T10:28:16.688Z,13.45
2022-10-09T10:33:26.989Z,13.50
2022-10-09T10:38:37.094Z,13.59
2022-10-09T10:43:48.306Z,13.51
2022-10-09T10:48:54.542Z,13.26
2022-10-09T10:54:11.414Z,13.06
2022-10-09T10:59:35.841Z,13.08
2022-10-09T11:04:54.676Z,13.14
2022-10-09T11:10:09.297Z,13.06
2022-10-09T11:15:26.042Z,12.99
2022-10-09T11:20:54.744Z,13.09
2022-10-09T11:26:11.929Z,13.19
2022-10-09T11:31:24.624Z,13.24
2022-10-09T11:36:39.286Z,13.36
2022-10-09T11:41:47.772Z,13.39
2022-10-09T11:47:01.859Z,13.39
2022-10-09T11:52:18.306Z,13.35
2022-10-09T11:57:33.503Z,13.27
2022-10-09T12:02:40.519Z,13.24
2022-10-09T12:07:46.449Z,13.24
2022-10-09T12:13:01.925Z,13.25
2022-10-09T12:18:22.159Z,13.22
2022-10-09T12:23:33.250Z,13.22
2022-10-09T12:28:44.958Z,13.27
2022-10-09T12:33:54.958Z,13.33
2022-10-09T12:39:15.064Z,13.35
2022-10-09T12:44:30.253Z,13.33
2022-10-09T12:49:36.525Z,13.42
2022-10-09T12:54:44.479Z,13.65
2022-10-09T12:59:51.437Z,13.95
2022-10-09T13:05:00.382Z,14.03
2022-10-09T13:10:17.293Z,14.04
2022-10-09T13:15:33.540Z,14.04
2022-10-09T13:20:39.562Z,14.03
2022-10-09T13:25:45.725Z,13.99
2022-10-09T13:30:51.537Z,13.95
2022-10-09T13:35:57.437Z,13.90
2022-10-09T13:41:03.541Z,13.82
2022-10-09T13:46:09.736Z,13.71
2022-10-09T13:51:15.619Z,13.70
2022-10-09T13:56:21.438Z,13.97
2022-10-09T14:01:27.527Z,14.50
2022-10-09T14:06:36.538Z,14.71
2022-10-09T14:11:43.283Z,14.80
2022-10-09T14:16:50.725Z,14.88
2022-10-09T14:21:57.556Z,14.88
2022-10-09T14:27:03.688Z,14.66
2022-10-09T14:32:09.613Z,14.35
2022-10-09T14:37:29.748Z,13.95
2022-10-09T14:42:41.626Z,13.68
2022-10-09T14:47:47.527Z,13.48
2022-10-09T14:52:53.269Z,13.35
2022-10-09T14:57:59.145Z,13.27
2022-10-09T15:03:04.865Z,13.10
2022-10-09T15:08:10.603Z,12.99
2022-10-09T15:13:16.475Z,12.97
2022-10-09T15:18:22.154Z,12.96
2022-10-09T15:23:28.524Z,12.80
2022-10-09T15:28:34.871Z,12.52
2022-10-09T15:33:40.693Z,12.20
2022-10-09T15:38:46.412Z,11.84
2022-10-09T15:43:54.105Z,11.56
2022-10-09T15:49:00.242Z,11.34
2022-10-09T15:54:06.734Z,11.10
2022-10-09T15:59:14.310Z,10.85
2022-10-09T16:04:20.202Z,10.60
2022-10-09T16:09:26.026Z,10.29
2022-10-09T16:19:50.004Z,9.76
2022-10-09T16:24:53.006Z,9.59
2022-10-09T16:29:56.323Z,9.38
2022-10-09T16:34:59.586Z,9.16
2022-10-09T16:40:02.754Z,8.99
2022-10-09T16:45:08.443Z,8.87
2022-10-09T16:50:11.703Z,8.75
2022-10-09T16:55:15.173Z,8.56
2022-10-09T17:00:19.445Z,8.29
2022-10-09T17:05:25.944Z,8.18
2022-10-09T17:10:29.054Z,8.13
2022-10-09T17:15:32.273Z,8.04
2022-10-09T17:20:36.789Z,7.88
2022-10-09T17:25:42.310Z,7.68
2022-10-09T17:30:45.535Z,7.51
2022-10-09T17:35:48.510Z,7.42
2022-10-09T17:40:52.396Z,7.34
2022-10-09T17:45:55.405Z,7.12
2022-10-09T17:50:59.670Z,7.02
2022-10-09T17:56:03.770Z,6.97
2022-10-09T18:01:08.135Z,6.93
2022-10-09T18:06:13.530Z,6.99
2022-10-09T18:11:17.086Z,6.99
2022-10-09T18:16:24.288Z,6.85
2022-10-09T18:21:27.409Z,6.66
2022-10-09T18:26:35.389Z,6.59
2022-10-09T18:31:38.833Z,6.54
2022-10-09T18:36:42.217Z,6.55
2022-10-09T18:41:45.770Z,6.55
2022-10-09T18:46:51.111Z,6.46
2022-10-09T18:51:55.675Z,6.41
2022-10-09T18:56:58.973Z,6.35
2022-10-09T19:02:02.097Z,6.29
2022-10-09T19:07:05.494Z,6.11
2022-10-09T19:12:08.727Z,5.92
2022-10-09T19:17:12.382Z,5.84
2022-10-09T19:22:20.007Z,5.89
2022-10-09T19:27:26.857Z,5.96
2022-10-09T19:32:30.289Z,5.93
2022-10-09T19:37:33.347Z,5.83
2022-10-09T19:42:36.457Z,5.72
2022-10-09T19:47:39.707Z,5.62
2022-10-09T19:54:40.016Z,5.50
2022-10-09T19:59:45.751Z,5.35
2022-10-09T20:04:51.651Z,5.26
2022-10-09T20:09:57.778Z,5.27
2022-10-09T20:15:04.017Z,5.21
2022-10-09T20:20:10.871Z,5.16
2022-10-09T20:25:17.862Z,5.00
2022-10-09T20:30:23.866Z,4.91
2022-10-09T20:35:29.774Z,4.92
2022-10-09T20:40:35.697Z,4.83
2022-10-09T20:45:42.513Z,4.67
2022-10-09T20:50:48.238Z,4.54
2022-10-09T20:55:53.947Z,4.48
2022-10-09T21:00:59.855Z,4.51
2022-10-09T21:06:07.529Z,4.46
2022-10-09T21:11:16.886Z,4.39
2022-10-09T21:16:24.443Z,4.36
2022-10-09T21:21:31.378Z,4.26
2022-10-09T21:26:37.844Z,4.23
2022-10-09T21:31:43.779Z,4.24
2022-10-09T21:42:18.696Z,4.29
2022-10-09T21:47:25.334Z,4.35
2022-10-09T21:52:31.203Z,4.23
2022-10-09T21:57:36.922Z,4.10
2022-10-09T22:02:42.791Z,3.95
2022-10-09T22:07:48.433Z,3.84
2022-10-09T22:12:54.205Z,3.77
2022-10-09T22:17:59.950Z,3.69
2022-10-09T22:23:05.727Z,3.68
2022-10-09T22:28:11.553Z,3.73
2022-10-09T22:33:17.250Z,3.66
2022-10-09T22:38:22.972Z,3.52
2022-10-09T22:43:29.021Z,3.38
2022-10-09T22:48:35.151Z,3.33
2022-10-09T22:53:41.927Z,3.39
2022-10-09T22:58:48.934Z,3.44
2022-10-09T23:03:54.632Z,3.35
2022-10-09T23:09:00.575Z,3.23
2022-10-09T23:14:07.305Z,3.16
2022-10-09T23:19:18.980Z,3.11
2022-10-09T23:24:24.967Z,3.05
2022-10-09T23:29:30.738Z,3.04
2022-10-09T23:34:36.425Z,3.05
2022-10-09T23:39:42.100Z,3.16
2022-10-09T23:44:47.880Z,3.11
2022-10-09T23:49:53.723Z,3.00
2022-10-09T23:54:59.514Z,2.92
